createdAt,value
2018-02-11T00:02:14.323Z,6.20
2018-02-11T00:04:41.769Z,6.20
2018-02-11T00:07:09.184Z,6.10
2018-02-11T00:09:36.629Z,5.90
2018-02-11T00:12:04.074Z,5.90
2018-02-11T00:14:31.503Z,5.90
2018-02-11T00:16:58.947Z,5.80
2018-02-11T00:19:26.856Z,5.90
2018-02-11T00:21:55.096Z,5.60
2018-02-11T00:24:22.563Z,5.60
2018-02-11T00:26:49.989Z,5.50
2018-02-11T00:29:18.195Z,6.00
2018-02-11T00:31:45.645Z,6.00
2018-02-11T00:34:13.149Z,6.10
2018-02-11T00:36:46.310Z,6.30
2018-02-11T00:39:13.732Z,6.50
2018-02-11T00:41:41.951Z,6.10
2018-02-11T00:44:09.396Z,6.20
2018-02-11T00:46:36.843Z,5.80
2018-02-11T00:49:04.268Z,5.80
2018-02-11T00:51:32.464Z,5.70
2018-02-11T00:53:59.900Z,5.70
2018-02-11T00:56:27.336Z,5.60
2018-02-11T00:58:54.784Z,5.90
2018-02-11T01:01:22.221Z,5.60
2018-02-11T01:03:49.648Z,5.60
2018-02-11T01:06:17.081Z,5.60
2018-02-11T01:08:44.511Z,5.50
2018-02-11T01:11:11.940Z,5.40
2018-02-11T01:13:39.389Z,5.50
2018-02-11T01:16:06.853Z,5.70
2018-02-11T01:18:34.304Z,5.90
2018-02-11T01:21:01.759Z,5.70
2018-02-11T01:23:29.252Z,5.60
2018-02-11T01:25:56.699Z,5.60
2018-02-11T01:28:24.119Z,5.70
2018-02-11T01:30:52.324Z,5.30
2018-02-11T01:33:19.759Z,5.30
2018-02-11T01:35:47.185Z,5.20
2018-02-11T01:38:14.624Z,5.00
2018-02-11T01:40:42.060Z,5.30
2018-02-11T01:43:09.572Z,5.50
2018-02-11T01:45:37.764Z,5.40
2018-02-11T01:48:05.222Z,5.40
2018-02-11T01:50:32.681Z,5.20
2018-02-11T01:53:00.104Z,5.30
2018-02-11T01:55:27.536Z,5.20
2018-02-11T01:57:54.985Z,5.20
2018-02-11T02:00:23.201Z,5.20
2018-02-11T02:02:50.636Z,5.20
2018-02-11T02:05:18.069Z,5.20
2018-02-11T02:07:45.507Z,5.00
2018-02-11T02:10:12.938Z,5.20
2018-02-11T02:12:41.150Z,5.30
2018-02-11T02:15:08.576Z,5.30
2018-02-11T02:17:36.771Z,5.00
2018-02-11T02:20:04.199Z,5.00
2018-02-11T02:22:32.425Z,5.20
2018-02-11T02:24:59.840Z,5.20
2018-02-11T02:27:28.046Z,5.30
2018-02-11T02:29:55.472Z,5.30
2018-02-11T02:32:23.678Z,5.10
2018-02-11T02:34:51.125Z,5.00
2018-02-11T02:37:18.588Z,5.20
2018-02-11T02:39:46.085Z,5.10
2018-02-11T02:42:13.514Z,4.70
2018-02-11T02:44:40.953Z,5.10
2018-02-11T02:47:08.389Z,4.80
2018-02-11T02:49:36.588Z,4.80
2018-02-11T02:52:04.022Z,4.80
2018-02-11T02:54:32.211Z,4.80
2018-02-11T02:56:59.648Z,4.80
2018-02-11T02:59:27.183Z,5.00
2018-02-11T03:01:54.609Z,5.30
2018-02-11T03:04:22.044Z,5.30
2018-02-11T03:06:49.486Z,5.40
2018-02-11T03:09:17.676Z,5.40
2018-02-11T03:11:45.132Z,5.30
2018-02-11T03:14:12.596Z,5.30
2018-02-11T03:16:40.040Z,5.20
2018-02-11T03:19:07.471Z,4.90
2018-02-11T03:21:34.937Z,5.10
2018-02-11T03:24:03.135Z,5.00
2018-02-11T03:26:30.577Z,5.00
2018-02-11T03:28:58.771Z,5.10
2018-02-11T03:31:27.124Z,5.00
2018-02-11T03:33:55.320Z,5.00
2018-02-11T03:36:22.760Z,5.00
2018-02-11T03:38:50.190Z,5.10
2018-02-11T03:41:17.647Z,5.10
2018-02-11T03:43:45.076Z,5.00
2018-02-11T03:46:12.512Z,5.30
2018-02-11T03:48:39.947Z,5.20
2018-02-11T03:51:08.152Z,5.10
2018-02-11T03:53:35.595Z,5.00
2018-02-11T03:56:03.779Z,5.50
2018-02-11T03:58:31.224Z,5.50
2018-02-11T04:00:59.416Z,5.40
2018-02-11T04:03:27.761Z,5.40
2018-02-11T04:05:56.088Z,5.60
2018-02-11T04:08:23.517Z,5.60
2018-02-11T04:10:50.945Z,5.50
2018-02-11T04:13:18.390Z,5.30
2018-02-11T04:15:45.813Z,5.20
2018-02-11T04:18:13.245Z,5.20
2018-02-11T04:20:40.664Z,4.90
2018-02-11T04:23:08.104Z,4.80
2018-02-11T04:25:35.558Z,4.80
2018-02-11T04:28:03.013Z,4.90
2018-02-11T04:30:30.449Z,5.20
2018-02-11T04:32:57.869Z,5.10
2018-02-11T04:35:26.060Z,4.80
2018-02-11T04:37:53.484Z,4.80
2018-02-11T04:40:20.919Z,5.20
2018-02-11T04:42:48.358Z,5.30
2018-02-11T04:45:15.785Z,5.20
2018-02-11T04:47:43.986Z,5.00
2018-02-11T04:50:11.420Z,4.90
2018-02-11T04:52:38.845Z,4.90
2018-02-11T04:55:06.304Z,4.80
2018-02-11T04:57:33.731Z,5.00
2018-02-11T05:00:01.221Z,4.90
2018-02-11T05:02:28.677Z,5.20
2018-02-11T05:04:56.128Z,5.00
2018-02-11T05:07:23.581Z,5.10
2018-02-11T05:09:51.045Z,5.00
2018-02-11T05:12:18.472Z,5.10
2018-02-11T05:14:46.000Z,4.90
2018-02-11T05:17:14.209Z,5.20
2018-02-11T05:19:41.639Z,5.20
2018-02-11T05:22:09.064Z,5.10
2018-02-11T05:24:37.264Z,5.20
2018-02-11T05:27:04.709Z,5.20
2018-02-11T05:29:32.915Z,5.20
2018-02-11T05:32:00.382Z,5.20
2018-02-11T05:34:28.284Z,5.20
2018-02-11T05:36:55.711Z,5.50
2018-02-11T05:39:23.170Z,5.30
2018-02-11T05:41:50.599Z,5.30
2018-02-11T05:44:18.049Z,5.50
2018-02-11T05:46:45.505Z,5.10
2018-02-11T05:49:13.707Z,5.10
2018-02-11T05:51:42.080Z,5.10
2018-02-11T05:54:09.507Z,5.00
2018-02-11T05:56:37.721Z,4.90
2018-02-11T05:59:05.164Z,4.90
2018-02-11T06:01:32.600Z,4.90
2018-02-11T06:04:00.820Z,5.20
2018-02-11T06:06:28.326Z,5.20
2018-02-11T06:08:55.741Z,5.40
2018-02-11T06:11:23.188Z,5.20
2018-02-11T06:13:50.634Z,5.10
2018-02-11T06:16:18.070Z,5.10
2018-02-11T06:18:45.503Z,5.00
2018-02-11T06:21:12.968Z,5.40
2018-02-11T06:23:41.174Z,5.50
2018-02-11T06:26:08.715Z,5.50
2018-02-11T06:28:36.916Z,5.00
2018-02-11T06:31:04.340Z,5.00
2018-02-11T06:33:32.552Z,5.10
2018-02-11T06:35:59.993Z,5.10
2018-02-11T06:38:28.345Z,5.00
2018-02-11T06:40:56.548Z,5.10
2018-02-11T06:43:23.984Z,5.10
2018-02-11T06:45:52.200Z,5.20
2018-02-11T06:48:19.660Z,5.20
2018-02-11T06:50:47.107Z,5.10
2018-02-11T06:53:14.580Z,5.30
2018-02-11T06:55:42.028Z,5.20
2018-02-11T06:58:09.459Z,5.20
2018-02-11T07:00:36.919Z,5.10
2018-02-11T07:03:04.369Z,5.00
2018-02-11T07:05:32.569Z,5.50
2018-02-11T07:07:59.995Z,5.50
2018-02-11T07:10:29.148Z,5.40
2018-02-11T07:12:56.572Z,5.40
2018-02-11T07:15:24.004Z,5.30
2018-02-11T07:17:52.198Z,5.30
2018-02-11T07:20:19.831Z,5.30
2018-02-11T07:22:47.261Z,5.60
2018-02-11T07:25:14.713Z,5.30
2018-02-11T07:27:42.160Z,5.20
2018-02-11T07:30:09.604Z,5.80
2018-02-11T07:32:37.034Z,5.60
2018-02-11T07:35:05.241Z,5.70
2018-02-11T07:37:32.683Z,5.70
2018-02-11T07:40:00.103Z,5.90
2018-02-11T07:42:27.542Z,5.60
2018-02-11T07:44:54.961Z,5.80
2018-02-11T07:47:22.408Z,6.00
2018-02-11T07:49:49.836Z,5.70
2018-02-11T07:52:18.049Z,5.70
2018-02-11T07:54:45.484Z,5.60
2018-02-11T07:57:13.692Z,5.90
2018-02-11T07:59:41.160Z,5.90
2018-02-11T08:02:08.608Z,5.70
2018-02-11T08:04:36.062Z,5.80
2018-02-11T08:07:03.502Z,5.90
2018-02-11T08:09:30.949Z,5.70
2018-02-11T08:11:59.141Z,5.50
2018-02-11T08:14:26.564Z,5.60
2018-02-11T08:16:54.786Z,5.80
2018-02-11T08:19:22.223Z,5.80
2018-02-11T08:21:49.652Z,5.70
2018-02-11T08:24:17.852Z,6.30
2018-02-11T08:26:45.296Z,6.30
2018-02-11T08:29:13.491Z,6.20
2018-02-11T08:31:40.912Z,6.20
2018-02-11T08:34:08.380Z,6.20
2018-02-11T08:36:35.788Z,6.30
2018-02-11T08:39:03.231Z,5.90
2018-02-11T08:41:30.660Z,6.30
2018-02-11T08:43:58.863Z,6.60
2018-02-11T08:46:26.293Z,6.50
2018-02-11T08:48:54.497Z,6.30
2018-02-11T08:51:21.912Z,6.30
2018-02-11T08:53:50.135Z,6.30
2018-02-11T08:56:17.564Z,6.30
2018-02-11T08:58:45.017Z,6.00
2018-02-11T09:01:13.232Z,5.90
2018-02-11T09:03:40.645Z,5.90
2018-02-11T09:06:08.856Z,5.90
2018-02-11T09:08:36.317Z,5.90
2018-02-11T09:11:03.739Z,5.90
2018-02-11T09:13:31.169Z,6.10
2018-02-11T09:15:58.596Z,5.90
2018-02-11T09:18:26.056Z,6.10
2018-02-11T09:20:53.496Z,6.20
2018-02-11T09:23:21.399Z,6.20
2018-02-11T09:25:48.830Z,6.10
2018-02-11T09:28:16.287Z,6.20
2018-02-11T09:30:43.704Z,6.50
2018-02-11T09:33:11.897Z,6.80
2018-02-11T09:35:39.332Z,6.80
2018-02-11T09:38:07.524Z,7.10
2018-02-11T09:40:34.987Z,7.10
2018-02-11T09:43:02.459Z,7.10
2018-02-11T09:45:29.893Z,7.10
2018-02-11T09:47:57.322Z,7.10
2018-02-11T09:50:24.743Z,7.30
2018-02-11T09:52:52.949Z,7.50
2018-02-11T09:55:20.382Z,7.40
2018-02-11T09:57:47.825Z,7.70
2018-02-11T10:00:15.303Z,7.30
2018-02-11T10:02:42.747Z,7.40
2018-02-11T10:05:10.341Z,7.20
2018-02-11T10:07:37.806Z,7.60
2018-02-11T10:10:05.233Z,7.80
2018-02-11T10:12:32.667Z,7.80
2018-02-11T10:15:00.116Z,7.90
2018-02-11T10:17:29.230Z,7.90
2018-02-11T10:19:56.672Z,7.80
2018-02-11T10:22:24.113Z,7.50
2018-02-11T10:24:51.546Z,7.60
2018-02-11T10:27:18.972Z,7.70
2018-02-11T10:29:46.424Z,8.10
2018-02-11T10:32:13.845Z,8.30
2018-02-11T10:34:41.277Z,8.50
2018-02-11T10:37:09.467Z,8.80
2018-02-11T10:39:36.896Z,8.80
2018-02-11T10:42:04.364Z,8.90
2018-02-11T10:44:31.813Z,9.30
2018-02-11T10:46:59.240Z,9.30
2018-02-11T10:49:26.673Z,8.80
2018-02-11T10:51:54.116Z,9.00
2018-02-11T10:54:21.597Z,9.40
2018-02-11T10:56:49.796Z,10.20
2018-02-11T10:59:17.247Z,10.20
2018-02-11T11:01:45.447Z,10.30
2018-02-11T11:04:12.888Z,10.30
2018-02-11T11:06:40.332Z,10.30
2018-02-11T11:09:07.773Z,10.40
2018-02-11T11:11:35.226Z,10.30
2018-02-11T11:14:02.671Z,10.40
2018-02-11T11:16:30.135Z,10.30
2018-02-11T11:18:57.568Z,9.10
2018-02-11T11:21:25.760Z,9.90
2018-02-11T11:23:53.188Z,9.90
2018-02-11T11:26:20.619Z,10.00
2018-02-11T11:28:48.053Z,9.50
2018-02-11T11:31:15.492Z,9.50
2018-02-11T11:33:42.915Z,9.60
2018-02-11T11:36:10.357Z,9.60
2018-02-11T11:38:37.812Z,9.50
2018-02-11T11:41:05.254Z,9.80
2018-02-11T11:43:32.683Z,10.20
2018-02-11T11:46:00.116Z,9.90
2018-02-11T11:48:29.232Z,9.90
2018-02-11T11:50:56.660Z,9.90
2018-02-11T11:53:24.861Z,10.40
2018-02-11T11:55:52.295Z,10.40
2018-02-11T11:58:20.549Z,10.30
2018-02-11T12:00:48.725Z,10.30
2018-02-11T12:03:16.177Z,10.30
2018-02-11T12:05:43.602Z,10.50
2018-02-11T12:08:11.037Z,9.60
2018-02-11T12:10:38.460Z,9.50
2018-02-11T12:13:05.893Z,9.30
2018-02-11T12:15:33.317Z,8.50
2018-02-11T12:18:00.754Z,7.80
2018-02-11T12:20:29.868Z,7.20
2018-02-11T12:22:57.309Z,7.20
2018-02-11T12:25:25.510Z,6.90
2018-02-11T12:27:52.944Z,6.90
2018-02-11T12:30:21.196Z,6.60
2018-02-11T12:32:48.623Z,6.60
2018-02-11T12:35:16.825Z,6.90
2018-02-11T12:37:44.248Z,6.90
2018-02-11T12:40:11.827Z,7.00
2018-02-11T12:42:39.253Z,7.40
2018-02-11T12:45:06.679Z,7.30
2018-02-11T12:47:34.868Z,7.80
2018-02-11T12:50:02.304Z,7.80
2018-02-11T12:52:30.920Z,7.90
2018-02-11T12:54:58.344Z,7.90
2018-02-11T12:57:26.549Z,7.20
2018-02-11T12:59:53.971Z,7.10
2018-02-11T13:02:22.181Z,7.30
2018-02-11T13:04:49.621Z,7.30
2018-02-11T13:07:17.808Z,7.80
2018-02-11T13:09:45.253Z,7.70
2018-02-11T13:12:13.452Z,7.90
2018-02-11T13:14:40.872Z,7.80
2018-02-11T13:17:09.088Z,8.40
2018-02-11T13:19:36.514Z,8.40
2018-02-11T13:22:04.710Z,8.30
2018-02-11T13:24:32.237Z,8.30
2018-02-11T13:27:00.428Z,8.00
2018-02-11T13:29:28.621Z,8.10
2018-02-11T13:31:56.055Z,8.00
2018-02-11T13:34:24.258Z,7.80
2018-02-11T13:36:51.673Z,7.80
2018-02-11T13:39:19.884Z,8.10
2018-02-11T13:41:48.090Z,7.70
2018-02-11T13:44:15.528Z,7.70
2018-02-11T13:46:43.765Z,7.90
2018-02-11T13:49:12.178Z,8.40
2018-02-11T13:51:39.620Z,8.30
2018-02-11T13:54:07.042Z,8.30
2018-02-11T13:56:34.477Z,8.60
2018-02-11T13:59:01.916Z,8.90
2018-02-11T14:01:30.252Z,8.90
2018-02-11T14:03:58.441Z,8.70
2018-02-11T14:06:25.864Z,8.70
2018-02-11T14:08:53.315Z,9.00
2018-02-11T14:11:20.748Z,9.00
2018-02-11T14:13:48.186Z,9.80
2018-02-11T14:16:15.623Z,9.70
2018-02-11T14:18:43.284Z,9.70
2018-02-11T14:21:11.473Z,9.50
2018-02-11T14:23:38.903Z,9.30
2018-02-11T14:26:07.091Z,9.80
2018-02-11T14:28:35.292Z,9.70
2018-02-11T14:31:02.717Z,9.70
2018-02-11T14:33:30.452Z,10.00
2018-02-11T14:35:57.902Z,9.70
2018-02-11T14:38:25.348Z,9.70
2018-02-11T14:40:52.878Z,9.70
2018-02-11T14:43:20.363Z,9.30
2018-02-11T14:45:47.802Z,9.80
2018-02-11T14:48:15.220Z,9.90
2018-02-11T14:50:43.420Z,9.70
2018-02-11T14:53:10.848Z,9.70
2018-02-11T14:55:38.281Z,9.70
2018-02-11T14:58:05.713Z,9.30
2018-02-11T15:00:34.032Z,8.70
2018-02-11T15:03:01.466Z,9.20
2018-02-11T15:05:28.899Z,9.50
2018-02-11T15:07:56.339Z,9.50
2018-02-11T15:10:24.519Z,8.90
2018-02-11T15:12:51.944Z,8.90
2018-02-11T15:15:20.143Z,9.10
2018-02-11T15:17:47.571Z,9.10
2018-02-11T15:20:15.772Z,8.80
2018-02-11T15:22:43.204Z,8.80
2018-02-11T15:25:10.645Z,9.00
2018-02-11T15:27:38.067Z,9.20
2018-02-11T15:30:05.541Z,8.70
2018-02-11T15:32:32.985Z,9.00
2018-02-11T15:35:00.426Z,9.20
2018-02-11T15:37:27.873Z,9.50
2018-02-11T15:39:55.299Z,9.50
2018-02-11T15:42:22.757Z,9.80
2018-02-11T15:44:50.180Z,9.90
2018-02-11T15:47:17.669Z,9.90
2018-02-11T15:49:45.093Z,9.90
2018-02-11T15:52:12.561Z,9.50
2018-02-11T15:54:40.040Z,9.70
2018-02-11T15:57:07.498Z,9.80
2018-02-11T15:59:34.964Z,9.30
2018-02-11T16:02:02.411Z,8.40
2018-02-11T16:04:30.625Z,8.50
2018-02-11T16:06:58.060Z,8.30
2018-02-11T16:09:26.249Z,8.90
2018-02-11T16:11:54.497Z,9.10
2018-02-11T16:14:21.924Z,9.10
2018-02-11T16:16:49.371Z,8.50
2018-02-11T16:19:16.801Z,8.50
2018-02-11T16:21:45.030Z,8.00
2018-02-11T16:24:12.461Z,8.00
2018-02-11T16:26:39.900Z,8.00
2018-02-11T16:29:07.361Z,7.80
2018-02-11T16:34:08.784Z,8.30
2018-02-11T16:36:36.206Z,8.10
2018-02-11T16:39:03.641Z,8.20
2018-02-11T16:41:31.068Z,8.10
2018-02-11T16:43:59.277Z,8.50
2018-02-11T16:46:26.700Z,8.50
2018-02-11T16:48:54.926Z,8.30
2018-02-11T16:51:22.349Z,8.30
2018-02-11T16:53:50.561Z,7.80
2018-02-11T16:56:18.000Z,7.80
2018-02-11T16:58:45.468Z,8.00
2018-02-11T17:01:12.978Z,8.00
2018-02-11T17:03:40.401Z,8.00
2018-02-11T17:06:07.824Z,7.80
2018-02-11T17:08:35.274Z,7.60
2018-02-11T17:11:02.696Z,7.40
2018-02-11T17:13:31.064Z,7.40
2018-02-11T17:16:04.107Z,7.30
2018-02-11T17:18:31.596Z,7.40
2018-02-11T17:20:59.025Z,7.70
2018-02-11T17:23:26.485Z,8.00
2018-02-11T17:25:54.267Z,7.90
2018-02-11T17:28:21.672Z,7.80
2018-02-11T17:30:49.870Z,7.80
2018-02-11T17:33:18.066Z,7.90
2018-02-11T17:35:45.500Z,7.90
2018-02-11T17:38:12.923Z,8.00
2018-02-11T17:40:40.372Z,7.80
2018-02-11T17:43:07.813Z,7.40
2018-02-11T17:45:35.257Z,7.60
2018-02-11T17:48:02.705Z,7.60
2018-02-11T17:50:31.057Z,7.40
2018-02-11T17:52:59.262Z,7.30
2018-02-11T17:55:26.708Z,7.30
2018-02-11T17:57:54.149Z,6.90
2018-02-11T18:00:22.353Z,7.20
2018-02-11T18:02:49.788Z,7.20
2018-02-11T18:05:17.216Z,7.20
2018-02-11T18:07:44.663Z,7.20
2018-02-11T18:10:12.090Z,6.70
2018-02-11T18:12:39.534Z,6.80
2018-02-11T18:15:06.956Z,7.00
2018-02-11T18:17:35.156Z,6.70
2018-02-11T18:20:02.597Z,6.70
2018-02-11T18:22:31.733Z,7.40
2018-02-11T18:24:59.149Z,7.40
2018-02-11T18:27:27.345Z,7.50
2018-02-11T18:29:54.776Z,7.50
2018-02-11T18:32:22.972Z,7.30
2018-02-11T18:34:50.399Z,7.20
2018-02-11T18:37:17.833Z,7.10
2018-02-11T18:39:45.264Z,7.30
2018-02-11T18:42:12.704Z,7.30
2018-02-11T18:44:40.137Z,7.10
2018-02-11T18:47:08.361Z,6.90
2018-02-11T18:49:35.861Z,6.90
2018-02-11T18:52:03.330Z,6.70
2018-02-11T18:54:31.240Z,7.00
2018-02-11T18:56:58.677Z,6.70
2018-02-11T18:59:26.137Z,7.10
2018-02-11T19:01:53.653Z,7.10
2018-02-11T19:04:21.092Z,6.70
2018-02-11T19:06:48.559Z,7.00
2018-02-11T19:09:15.988Z,7.20
2018-02-11T19:11:44.231Z,7.10
2018-02-11T19:14:12.601Z,7.40
2018-02-11T19:16:40.802Z,7.30
2018-02-11T19:19:08.241Z,7.30
2018-02-11T19:21:36.434Z,7.40
2018-02-11T19:24:03.884Z,7.40
2018-02-11T19:26:31.579Z,7.50
2018-02-11T19:28:59.043Z,7.30
2018-02-11T19:31:26.534Z,7.20
2018-02-11T19:33:53.993Z,7.00
2018-02-11T19:36:21.455Z,6.70
2018-02-11T19:38:48.899Z,6.80
2018-02-11T19:41:16.320Z,6.90
2018-02-11T19:43:43.756Z,6.90
2018-02-11T19:46:11.203Z,6.80
2018-02-11T19:48:38.656Z,6.70
2018-02-11T19:51:06.882Z,6.40
2018-02-11T19:53:34.571Z,6.40
2018-02-11T19:56:01.997Z,6.40
2018-02-11T19:58:29.493Z,6.90
2018-02-11T20:00:56.929Z,6.90
2018-02-11T20:03:24.413Z,6.90
2018-02-11T20:05:51.853Z,6.60
2018-02-11T20:08:19.295Z,6.30
2018-02-11T20:10:46.742Z,6.50
2018-02-11T20:13:14.160Z,6.50
2018-02-11T20:15:41.588Z,6.10
2018-02-11T20:18:09.028Z,6.20
2018-02-11T20:20:36.460Z,6.30
2018-02-11T20:23:03.881Z,5.90
2018-02-11T20:25:32.690Z,6.30
2018-02-11T20:28:00.125Z,6.40
2018-02-11T20:30:28.342Z,5.90
2018-02-11T20:32:55.820Z,5.90
2018-02-11T20:35:23.208Z,5.30
2018-02-11T20:37:51.402Z,6.00
2018-02-11T20:40:18.840Z,6.00
2018-02-11T20:42:47.052Z,6.10
2018-02-11T20:45:14.520Z,6.00
2018-02-11T20:47:41.979Z,6.00
2018-02-11T20:50:09.452Z,6.10
2018-02-11T20:52:36.883Z,6.00
2018-02-11T20:55:04.349Z,6.10
2018-02-11T20:57:32.724Z,6.30
2018-02-11T21:00:00.169Z,6.30
2018-02-11T21:02:27.624Z,6.30
2018-02-11T21:04:55.066Z,6.50
2018-02-11T21:07:23.300Z,5.90
2018-02-11T21:09:50.828Z,5.90
2018-02-11T21:12:18.253Z,5.90
2018-02-11T21:14:46.460Z,5.60
2018-02-11T21:17:13.889Z,5.60
2018-02-11T21:19:42.109Z,6.00
2018-02-11T21:22:09.548Z,6.00
2018-02-11T21:24:37.009Z,6.10
2018-02-11T21:27:04.449Z,6.40
2018-02-11T21:29:32.067Z,6.20
2018-02-11T21:31:59.492Z,5.70
2018-02-11T21:34:26.947Z,6.00
2018-02-11T21:36:54.408Z,5.70
2018-02-11T21:39:21.836Z,5.30
2018-02-11T21:41:50.001Z,5.10
2018-02-11T21:44:18.233Z,5.30
2018-02-11T21:46:45.660Z,5.30
2018-02-11T21:49:13.100Z,5.60
2018-02-11T21:51:40.552Z,5.80
2018-02-11T21:54:08.757Z,5.60
2018-02-11T21:56:36.211Z,5.60
2018-02-11T21:59:03.657Z,5.30
2018-02-11T22:01:32.012Z,5.20
2018-02-11T22:04:00.246Z,5.10
2018-02-11T22:06:27.698Z,5.00
2018-02-11T22:08:55.139Z,5.10
2018-02-11T22:11:22.589Z,5.20
2018-02-11T22:13:50.021Z,5.30
2018-02-11T22:16:18.220Z,4.80
2018-02-11T22:18:45.646Z,4.80
2018-02-11T22:21:13.841Z,5.30
2018-02-11T22:23:41.269Z,5.30
2018-02-11T22:26:08.712Z,5.20
2018-02-11T22:28:36.157Z,5.30
2018-02-11T22:31:03.610Z,5.10
2018-02-11T22:33:31.961Z,5.30
2018-02-11T22:35:59.388Z,5.40
2018-02-11T22:38:27.618Z,4.90
2018-02-11T22:40:55.016Z,4.90
2018-02-11T22:43:23.209Z,5.20
2018-02-11T22:45:50.638Z,5.20
2018-02-11T22:48:18.071Z,5.40
2018-02-11T22:50:45.526Z,5.60
2018-02-11T22:53:12.970Z,5.50
2018-02-11T22:55:40.396Z,5.50
2018-02-11T22:58:07.844Z,5.30
2018-02-11T23:00:36.049Z,5.20
2018-02-11T23:03:03.479Z,5.20
2018-02-11T23:05:32.600Z,5.10
2018-02-11T23:08:00.053Z,5.10
2018-02-11T23:10:27.500Z,5.30
2018-02-11T23:12:54.936Z,5.30
2018-02-11T23:15:23.132Z,5.70
2018-02-11T23:17:50.600Z,5.70
2018-02-11T23:20:18.036Z,6.00
2018-02-11T23:22:46.262Z,6.00
2018-02-11T23:25:13.668Z,6.00
2018-02-11T23:27:41.114Z,6.00
2018-02-11T23:30:09.308Z,6.10
2018-02-11T23:32:36.756Z,6.00
2018-02-11T23:35:04.939Z,5.80
2018-02-11T23:37:32.376Z,5.80
2018-02-11T23:40:00.582Z,6.30
2018-02-11T23:42:27.999Z,6.30
2018-02-11T23:44:55.427Z,6.40
2018-02-11T23:47:22.869Z,6.20
2018-02-11T23:49:50.296Z,6.20
2018-02-11T23:52:17.723Z,5.80
2018-02-11T23:54:45.156Z,5.80
2018-02-11T23:57:12.595Z,5.70
2018-02-11T23:59:40.023Z,6.40
